sensor_id;sensor_type;location;lat;lon;timestamp;temperature;humidity
4183;DHT22;2105;52.300;9.182;2023-03-30T00:01:21;13.70;99.90
4183;DHT22;2105;52.300;9.182;2023-03-30T00:03:48;13.70;99.90
4183;DHT22;2105;52.300;9.182;2023-03-30T00:06:15;13.70;99.90
4183;DHT22;2105;52.300;9.182;2023-03-30T00:08:46;13.70;99.90
4183;DHT22;2105;52.300;9.182;2023-03-30T00:11:15;13.70;1.00
4183;DHT22;2105;52.300;9.182;2023-03-30T00:13:42;13.60;1.00
4183;DHT22;2105;52.300;9.182;2023-03-30T00:16:11;13.60;1.00
4183;DHT22;2105;52.300;9.182;2023-03-30T00:18:38;13.50;1.00
4183;DHT22;2105;52.300;9.182;2023-03-30T00:21:06;13.50;1.00
4183;DHT22;2105;52.300;9.182;2023-03-30T00:23:33;13.50;1.00
4183;DHT22;2105;52.300;9.182;2023-03-30T00:26:00;13.50;1.00
4183;DHT22;2105;52.300;9.182;2023-03-30T00:28:29;13.40;1.00
4183;DHT22;2105;52.300;9.182;2023-03-30T00:30:56;13.40;1.00
4183;DHT22;2105;52.300;9.182;2023-03-30T00:33:22;13.40;1.00
4183;DHT22;2105;52.300;9.182;2023-03-30T00:35:51;13.40;1.00
4183;DHT22;2105;52.300;9.182;2023-03-30T00:38:18;13.40;1.00
4183;DHT22;2105;52.300;9.182;2023-03-30T00:40:50;13.50;1.00
4183;DHT22;2105;52.300;9.182;2023-03-30T00:43:17;13.60;99.90
4183;DHT22;2105;52.300;9.182;2023-03-30T00:45:45;13.50;1.00
4183;DHT22;2105;52.300;9.182;2023-03-30T00:48:14;13.50;1.00
4183;DHT22;2105;52.300;9.182;2023-03-30T00:50:44;13.50;1.00
4183;DHT22;2105;52.300;9.182;2023-03-30T00:53:14;13.50;1.00
4183;DHT22;2105;52.300;9.182;2023-03-30T00:55:43;13.60;1.00
4183;DHT22;2105;52.300;9.182;2023-03-30T00:58:12;13.60;1.00
4183;DHT22;2105;52.300;9.182;2023-03-30T01:00:40;13.70;99.90
4183;DHT22;2105;52.300;9.182;2023-03-30T01:03:14;13.70;99.90
4183;DHT22;2105;52.300;9.182;2023-03-30T01:05:42;13.80;99.90
4183;DHT22;2105;52.300;9.182;2023-03-30T01:08:11;13.80;99.90
4183;DHT22;2105;52.300;9.182;2023-03-30T01:10:38;13.80;99.90
4183;DHT22;2105;52.300;9.182;2023-03-30T01:13:05;13.70;99.90
4183;DHT22;2105;52.300;9.182;2023-03-30T01:15:34;13.70;1.00
4183;DHT22;2105;52.300;9.182;2023-03-30T01:18:20;13.70;1.00
4183;DHT22;2105;52.300;9.182;2023-03-30T01:21:18;13.70;1.00
4183;DHT22;2105;52.300;9.182;2023-03-30T01:24:06;13.70;1.00
4183;DHT22;2105;52.300;9.182;2023-03-30T01:26:45;13.70;1.00
4183;DHT22;2105;52.300;9.182;2023-03-30T01:29:23;13.80;99.90
4183;DHT22;2105;52.300;9.182;2023-03-30T01:35:44;13.80;99.90
4183;DHT22;2105;52.300;9.182;2023-03-30T01:39:06;13.70;54.40
4183;DHT22;2105;52.300;9.182;2023-03-30T01:41:44;13.90;1.00
4183;DHT22;2105;52.300;9.182;2023-03-30T01:44:16;14.00;1.00
4183;DHT22;2105;52.300;9.182;2023-03-30T01:46:48;14.00;1.00
4183;DHT22;2105;52.300;9.182;2023-03-30T01:49:21;13.90;1.00
4183;DHT22;2105;52.300;9.182;2023-03-30T01:51:56;13.90;1.00
4183;DHT22;2105;52.300;9.182;2023-03-30T01:54:30;13.90;1.00
4183;DHT22;2105;52.300;9.182;2023-03-30T01:57:02;13.90;56.40
4183;DHT22;2105;52.300;9.182;2023-03-30T01:59:34;13.90;1.00
4183;DHT22;2105;52.300;9.182;2023-03-30T02:02:03;13.90;1.00
4183;DHT22;2105;52.300;9.182;2023-03-30T02:04:34;13.90;1.00
4183;DHT22;2105;52.300;9.182;2023-03-30T02:07:05;13.80;1.00
4183;DHT22;2105;52.300;9.182;2023-03-30T02:09:36;13.80;1.00
4183;DHT22;2105;52.300;9.182;2023-03-30T02:12:04;13.80;1.00
4183;DHT22;2105;52.300;9.182;2023-03-30T02:14:33;13.80;1.00
4183;DHT22;2105;52.300;9.182;2023-03-30T02:17:05;13.80;1.00
4183;DHT22;2105;52.300;9.182;2023-03-30T02:19:33;13.80;1.00
4183;DHT22;2105;52.300;9.182;2023-03-30T02:22:02;13.90;1.00
4183;DHT22;2105;52.300;9.182;2023-03-30T02:24:31;13.90;1.00
4183;DHT22;2105;52.300;9.182;2023-03-30T02:27:01;13.90;1.00
4183;DHT22;2105;52.300;9.182;2023-03-30T02:29:28;13.90;1.00
4183;DHT22;2105;52.300;9.182;2023-03-30T02:31:56;14.00;1.00
4183;DHT22;2105;52.300;9.182;2023-03-30T02:34:36;14.00;1.00
4183;DHT22;2105;52.300;9.182;2023-03-30T02:37:17;14.00;1.00
4183;DHT22;2105;52.300;9.182;2023-03-30T02:39:58;14.10;1.00
4183;DHT22;2105;52.300;9.182;2023-03-30T02:45:39;14.20;1.00
4183;DHT22;2105;52.300;9.182;2023-03-30T02:48:17;14.30;1.00
4183;DHT22;2105;52.300;9.182;2023-03-30T02:50:53;14.30;1.00
4183;DHT22;2105;52.300;9.182;2023-03-30T02:53:28;14.20;1.00
4183;DHT22;2105;52.300;9.182;2023-03-30T02:56:00;14.20;1.00
4183;DHT22;2105;52.300;9.182;2023-03-30T02:58:34;14.20;1.00
4183;DHT22;2105;52.300;9.182;2023-03-30T03:01:04;14.10;1.00
4183;DHT22;2105;52.300;9.182;2023-03-30T03:03:37;14.30;1.00
4183;DHT22;2105;52.300;9.182;2023-03-30T03:06:05;14.30;99.90
4183;DHT22;2105;52.300;9.182;2023-03-30T03:08:36;14.30;99.90
4183;DHT22;2105;52.300;9.182;2023-03-30T03:11:04;14.30;99.90
4183;DHT22;2105;52.300;9.182;2023-03-30T03:13:33;14.40;99.90
4183;DHT22;2105;52.300;9.182;2023-03-30T03:16:01;14.50;99.90
4183;DHT22;2105;52.300;9.182;2023-03-30T03:18:27;14.40;99.90
4183;DHT22;2105;52.300;9.182;2023-03-30T03:20:55;14.40;99.90
4183;DHT22;2105;52.300;9.182;2023-03-30T03:23:21;14.50;99.90
4183;DHT22;2105;52.300;9.182;2023-03-30T03:25:48;14.50;99.90
4183;DHT22;2105;52.300;9.182;2023-03-30T03:28:15;14.50;99.90
4183;DHT22;2105;52.300;9.182;2023-03-30T03:30:43;14.60;99.90
4183;DHT22;2105;52.300;9.182;2023-03-30T03:33:10;14.60;99.90
4183;DHT22;2105;52.300;9.182;2023-03-30T03:35:37;14.50;99.90
4183;DHT22;2105;52.300;9.182;2023-03-30T03:38:04;14.50;99.90
4183;DHT22;2105;52.300;9.182;2023-03-30T03:40:31;14.40;99.90
4183;DHT22;2105;52.300;9.182;2023-03-30T03:42:57;14.40;99.90
4183;DHT22;2105;52.300;9.182;2023-03-30T03:45:24;14.20;99.90
4183;DHT22;2105;52.300;9.182;2023-03-30T03:47:52;14.20;99.90
4183;DHT22;2105;52.300;9.182;2023-03-30T03:50:19;14.10;99.90
4183;DHT22;2105;52.300;9.182;2023-03-30T03:52:46;14.10;99.90
4183;DHT22;2105;52.300;9.182;2023-03-30T03:55:13;14.10;99.90
4183;DHT22;2105;52.300;9.182;2023-03-30T03:57:39;14.10;99.90
4183;DHT22;2105;52.300;9.182;2023-03-30T04:00:07;14.10;99.90
4183;DHT22;2105;52.300;9.182;2023-03-30T04:02:39;14.00;99.90
4183;DHT22;2105;52.300;9.182;2023-03-30T04:05:08;14.10;99.90
4183;DHT22;2105;52.300;9.182;2023-03-30T04:07:35;14.20;99.90
4183;DHT22;2105;52.300;9.182;2023-03-30T04:10:02;14.30;99.90
4183;DHT22;2105;52.300;9.182;2023-03-30T04:12:29;14.40;99.90
4183;DHT22;2105;52.300;9.182;2023-03-30T04:14:55;14.50;99.90
4183;DHT22;2105;52.300;9.182;2023-03-30T04:17:22;14.50;99.90
4183;DHT22;2105;52.300;9.182;2023-03-30T04:19:50;14.50;99.90
4183;DHT22;2105;52.300;9.182;2023-03-30T04:22:20;14.50;99.90
4183;DHT22;2105;52.300;9.182;2023-03-30T04:24:48;14.50;99.90
4183;DHT22;2105;52.300;9.182;2023-03-30T04:27:15;14.50;99.90
4183;DHT22;2105;52.300;9.182;2023-03-30T04:29:42;14.50;99.90
4183;DHT22;2105;52.300;9.182;2023-03-30T04:32:09;14.50;99.90
4183;DHT22;2105;52.300;9.182;2023-03-30T04:34:37;14.50;99.90
4183;DHT22;2105;52.300;9.182;2023-03-30T04:37:07;14.50;99.90
4183;DHT22;2105;52.300;9.182;2023-03-30T04:39:35;14.50;99.90
4183;DHT22;2105;52.300;9.182;2023-03-30T04:42:02;14.50;99.90
4183;DHT22;2105;52.300;9.182;2023-03-30T04:44:30;14.50;99.90
4183;DHT22;2105;52.300;9.182;2023-03-30T04:46:57;14.50;99.90
4183;DHT22;2105;52.300;9.182;2023-03-30T04:49:24;14.60;99.90
4183;DHT22;2105;52.300;9.182;2023-03-30T04:51:50;14.50;99.90
4183;DHT22;2105;52.300;9.182;2023-03-30T04:54:19;14.60;99.90
4183;DHT22;2105;52.300;9.182;2023-03-30T04:56:47;14.60;99.90
4183;DHT22;2105;52.300;9.182;2023-03-30T04:59:14;14.50;99.90
4183;DHT22;2105;52.300;9.182;2023-03-30T05:01:40;14.50;99.90
4183;DHT22;2105;52.300;9.182;2023-03-30T05:04:07;14.40;99.90
4183;DHT22;2105;52.300;9.182;2023-03-30T05:06:34;14.50;99.90
4183;DHT22;2105;52.300;9.182;2023-03-30T05:09:01;14.50;99.90
4183;DHT22;2105;52.300;9.182;2023-03-30T05:11:28;14.60;99.90
4183;DHT22;2105;52.300;9.182;2023-03-30T05:13:56;14.50;99.90
4183;DHT22;2105;52.300;9.182;2023-03-30T05:16:22;14.40;99.90
4183;DHT22;2105;52.300;9.182;2023-03-30T05:18:49;14.40;99.90
4183;DHT22;2105;52.300;9.182;2023-03-30T05:21:16;14.40;99.90
4183;DHT22;2105;52.300;9.182;2023-03-30T05:23:42;14.40;99.90
4183;DHT22;2105;52.300;9.182;2023-03-30T05:26:09;14.50;99.90
4183;DHT22;2105;52.300;9.182;2023-03-30T05:28:36;14.50;99.90
4183;DHT22;2105;52.300;9.182;2023-03-30T05:31:04;14.40;99.90
4183;DHT22;2105;52.300;9.182;2023-03-30T05:33:31;14.50;99.90
4183;DHT22;2105;52.300;9.182;2023-03-30T05:35:58;14.40;99.90
4183;DHT22;2105;52.300;9.182;2023-03-30T05:38:24;14.50;99.90
4183;DHT22;2105;52.300;9.182;2023-03-30T05:40:51;14.60;99.90
4183;DHT22;2105;52.300;9.182;2023-03-30T05:43:18;14.60;99.90
4183;DHT22;2105;52.300;9.182;2023-03-30T05:45:45;14.70;99.90
4183;DHT22;2105;52.300;9.182;2023-03-30T05:48:13;14.70;99.90
4183;DHT22;2105;52.300;9.182;2023-03-30T05:50:40;14.80;99.90
4183;DHT22;2105;52.300;9.182;2023-03-30T05:53:07;14.80;99.90
4183;DHT22;2105;52.300;9.182;2023-03-30T05:55:33;14.90;99.90
4183;DHT22;2105;52.300;9.182;2023-03-30T05:58:00;14.90;99.90
4183;DHT22;2105;52.300;9.182;2023-03-30T06:00:28;14.80;99.90
4183;DHT22;2105;52.300;9.182;2023-03-30T06:02:57;14.80;99.90
4183;DHT22;2105;52.300;9.182;2023-03-30T06:05:25;14.80;99.90
4183;DHT22;2105;52.300;9.182;2023-03-30T06:07:52;14.70;1.00
4183;DHT22;2105;52.300;9.182;2023-03-30T06:10:19;14.80;1.00
4183;DHT22;2105;52.300;9.182;2023-03-30T06:12:45;14.80;1.00
4183;DHT22;2105;52.300;9.182;2023-03-30T06:15:12;14.90;99.90
4183;DHT22;2105;52.300;9.182;2023-03-30T06:17:38;15.00;99.90
4183;DHT22;2105;52.300;9.182;2023-03-30T06:20:06;15.10;99.90
4183;DHT22;2105;52.300;9.182;2023-03-30T06:22:36;15.00;99.90
4183;DHT22;2105;52.300;9.182;2023-03-30T06:25:04;14.90;99.90
4183;DHT22;2105;52.300;9.182;2023-03-30T06:27:31;14.90;99.90
4183;DHT22;2105;52.300;9.182;2023-03-30T06:29:58;14.80;99.90
4183;DHT22;2105;52.300;9.182;2023-03-30T06:32:25;14.70;99.90
4183;DHT22;2105;52.300;9.182;2023-03-30T06:34:52;14.80;99.90
4183;DHT22;2105;52.300;9.182;2023-03-30T06:37:19;14.70;99.90
4183;DHT22;2105;52.300;9.182;2023-03-30T06:39:47;14.80;99.90
4183;DHT22;2105;52.300;9.182;2023-03-30T06:42:15;14.80;99.90
4183;DHT22;2105;52.300;9.182;2023-03-30T06:44:41;14.80;1.00
4183;DHT22;2105;52.300;9.182;2023-03-30T06:47:09;14.80;1.00
4183;DHT22;2105;52.300;9.182;2023-03-30T06:49:35;14.80;1.00
4183;DHT22;2105;52.300;9.182;2023-03-30T06:52:02;14.90;99.90
4183;DHT22;2105;52.300;9.182;2023-03-30T06:54:29;14.90;99.90
4183;DHT22;2105;52.300;9.182;2023-03-30T06:56:57;14.90;99.90
4183;DHT22;2105;52.300;9.182;2023-03-30T06:59:23;14.80;99.90
4183;DHT22;2105;52.300;9.182;2023-03-30T07:01:50;14.70;1.00
4183;DHT22;2105;52.300;9.182;2023-03-30T07:04:16;14.70;1.00
4183;DHT22;2105;52.300;9.182;2023-03-30T07:06:43;14.70;1.00
4183;DHT22;2105;52.300;9.182;2023-03-30T07:09:10;14.70;1.00
4183;DHT22;2105;52.300;9.182;2023-03-30T07:11:37;14.80;1.00
4183;DHT22;2105;52.300;9.182;2023-03-30T07:14:05;14.80;1.00
4183;DHT22;2105;52.300;9.182;2023-03-30T07:16:34;14.80;1.00
4183;DHT22;2105;52.300;9.182;2023-03-30T07:19:01;14.80;1.00
4183;DHT22;2105;52.300;9.182;2023-03-30T07:21:28;14.80;1.00
4183;DHT22;2105;52.300;9.182;2023-03-30T07:23:54;14.80;1.00
4183;DHT22;2105;52.300;9.182;2023-03-30T07:26:22;14.90;1.00
4183;DHT22;2105;52.300;9.182;2023-03-30T07:28:49;14.90;1.00
4183;DHT22;2105;52.300;9.182;2023-03-30T07:31:17;14.90;1.00
4183;DHT22;2105;52.300;9.182;2023-03-30T07:33:44;15.00;1.00
4183;DHT22;2105;52.300;9.182;2023-03-30T07:36:11;15.00;1.00
4183;DHT22;2105;52.300;9.182;2023-03-30T07:38:37;15.00;1.00
4183;DHT22;2105;52.300;9.182;2023-03-30T07:41:07;15.10;1.00
4183;DHT22;2105;52.300;9.182;2023-03-30T07:43:34;15.10;1.00
4183;DHT22;2105;52.300;9.182;2023-03-30T07:46:01;15.10;1.00
4183;DHT22;2105;52.300;9.182;2023-03-30T07:48:29;15.20;1.00
4183;DHT22;2105;52.300;9.182;2023-03-30T07:51:00;15.20;1.00
4183;DHT22;2105;52.300;9.182;2023-03-30T07:53:27;15.20;1.00
4183;DHT22;2105;52.300;9.182;2023-03-30T07:55:54;15.20;1.00
4183;DHT22;2105;52.300;9.182;2023-03-30T07:58:20;15.10;1.00
4183;DHT22;2105;52.300;9.182;2023-03-30T08:00:47;15.20;1.00
4183;DHT22;2105;52.300;9.182;2023-03-30T08:03:14;15.20;1.00
4183;DHT22;2105;52.300;9.182;2023-03-30T08:05:42;15.40;1.00
4183;DHT22;2105;52.300;9.182;2023-03-30T08:08:10;15.70;99.90
4183;DHT22;2105;52.300;9.182;2023-03-30T08:10:39;15.90;99.90
4183;DHT22;2105;52.300;9.182;2023-03-30T08:13:06;15.70;99.90
4183;DHT22;2105;52.300;9.182;2023-03-30T08:15:32;15.70;99.90
4183;DHT22;2105;52.300;9.182;2023-03-30T08:17:59;15.70;1.00
4183;DHT22;2105;52.300;9.182;2023-03-30T08:20:28;15.60;99.90
4183;DHT22;2105;52.300;9.182;2023-03-30T08:22:56;15.60;99.90
4183;DHT22;2105;52.300;9.182;2023-03-30T08:25:23;15.50;99.90
4183;DHT22;2105;52.300;9.182;2023-03-30T08:27:50;15.60;99.90
4183;DHT22;2105;52.300;9.182;2023-03-30T08:30:16;15.70;99.90
4183;DHT22;2105;52.300;9.182;2023-03-30T08:32:43;15.70;99.90
4183;DHT22;2105;52.300;9.182;2023-03-30T08:35:10;15.70;99.90
4183;DHT22;2105;52.300;9.182;2023-03-30T08:37:37;15.60;99.90
4183;DHT22;2105;52.300;9.182;2023-03-30T08:40:08;15.60;99.90
4183;DHT22;2105;52.300;9.182;2023-03-30T08:42:49;15.60;99.90
4183;DHT22;2105;52.300;9.182;2023-03-30T08:45:21;15.70;99.90
4183;DHT22;2105;52.300;9.182;2023-03-30T08:47:50;15.70;1.00
4183;DHT22;2105;52.300;9.182;2023-03-30T08:50:23;15.70;1.00
4183;DHT22;2105;52.300;9.182;2023-03-30T08:52:55;15.70;1.00
4183;DHT22;2105;52.300;9.182;2023-03-30T08:55:28;15.70;1.00
4183;DHT22;2105;52.300;9.182;2023-03-30T08:57:58;15.60;99.90
4183;DHT22;2105;52.300;9.182;2023-03-30T09:00:35;15.20;1.00
4183;DHT22;2105;52.300;9.182;2023-03-30T09:03:12;14.60;99.90
4183;DHT22;2105;52.300;9.182;2023-03-30T09:05:44;14.40;1.00
4183;DHT22;2105;52.300;9.182;2023-03-30T09:08:16;14.20;1.00
4183;DHT22;2105;52.300;9.182;2023-03-30T09:10:50;14.20;15.80
4183;DHT22;2105;52.300;9.182;2023-03-30T09:13:19;14.10;99.90
4183;DHT22;2105;52.300;9.182;2023-03-30T09:15:51;14.10;1.00
4183;DHT22;2105;52.300;9.182;2023-03-30T09:18:21;14.00;1.00
4183;DHT22;2105;52.300;9.182;2023-03-30T09:20:53;14.00;1.00
4183;DHT22;2105;52.300;9.182;2023-03-30T09:23:20;13.90;1.00
4183;DHT22;2105;52.300;9.182;2023-03-30T09:25:53;13.90;99.90
4183;DHT22;2105;52.300;9.182;2023-03-30T09:28:26;13.80;99.90
4183;DHT22;2105;52.300;9.182;2023-03-30T09:30:59;13.90;1.00
4183;DHT22;2105;52.300;9.182;2023-03-30T09:33:30;14.00;99.90
4183;DHT22;2105;52.300;9.182;2023-03-30T09:36:10;14.00;3.60
4183;DHT22;2105;52.300;9.182;2023-03-30T09:38:38;14.00;99.90
4183;DHT22;2105;52.300;9.182;2023-03-30T09:41:20;14.10;99.90
4183;DHT22;2105;52.300;9.182;2023-03-30T09:43:50;14.10;7.00
4183;DHT22;2105;52.300;9.182;2023-03-30T09:46:18;14.10;1.00
4183;DHT22;2105;52.300;9.182;2023-03-30T09:48:46;14.00;99.90
4183;DHT22;2105;52.300;9.182;2023-03-30T09:51:18;14.00;1.00
4183;DHT22;2105;52.300;9.182;2023-03-30T09:53:46;14.10;1.00
4183;DHT22;2105;52.300;9.182;2023-03-30T09:56:20;14.20;99.90
4183;DHT22;2105;52.300;9.182;2023-03-30T09:58:47;14.10;99.90
4183;DHT22;2105;52.300;9.182;2023-03-30T10:01:16;14.00;1.00
4183;DHT22;2105;52.300;9.182;2023-03-30T10:03:44;13.80;1.00
4183;DHT22;2105;52.300;9.182;2023-03-30T10:06:15;13.70;11.30
4183;DHT22;2105;52.300;9.182;2023-03-30T10:08:48;13.50;99.90
4183;DHT22;2105;52.300;9.182;2023-03-30T10:11:20;13.50;1.00
4183;DHT22;2105;52.300;9.182;2023-03-30T10:13:49;13.30;1.00
4183;DHT22;2105;52.300;9.182;2023-03-30T10:16:22;13.20;1.00
4183;DHT22;2105;52.300;9.182;2023-03-30T10:18:52;13.00;1.00
4183;DHT22;2105;52.300;9.182;2023-03-30T10:21:21;12.90;1.00
4183;DHT22;2105;52.300;9.182;2023-03-30T10:24:00;12.80;99.90
4183;DHT22;2105;52.300;9.182;2023-03-30T10:26:29;12.70;1.00
4183;DHT22;2105;52.300;9.182;2023-03-30T10:29:01;12.60;99.90
4183;DHT22;2105;52.300;9.182;2023-03-30T10:31:30;12.60;99.90
4183;DHT22;2105;52.300;9.182;2023-03-30T10:34:00;12.60;99.90
4183;DHT22;2105;52.300;9.182;2023-03-30T10:36:29;12.60;68.30
4183;DHT22;2105;52.300;9.182;2023-03-30T10:39:04;12.70;99.90
4183;DHT22;2105;52.300;9.182;2023-03-30T10:41:35;12.80;1.00
4183;DHT22;2105;52.300;9.182;2023-03-30T10:44:21;12.90;1.00
4183;DHT22;2105;52.300;9.182;2023-03-30T10:46:51;13.10;43.40
4183;DHT22;2105;52.300;9.182;2023-03-30T10:49:38;13.70;1.00
4183;DHT22;2105;52.300;9.182;2023-03-30T10:52:11;14.10;1.00
4183;DHT22;2105;52.300;9.182;2023-03-30T10:54:46;14.50;99.90
4183;DHT22;2105;52.300;9.182;2023-03-30T10:57:18;14.40;99.90
4183;DHT22;2105;52.300;9.182;2023-03-30T10:59:59;14.60;1.00
4183;DHT22;2105;52.300;9.182;2023-03-30T11:02:45;14.70;99.90
4183;DHT22;2105;52.300;9.182;2023-03-30T11:05:17;15.10;1.00
4183;DHT22;2105;52.300;9.182;2023-03-30T11:07:50;15.30;99.90
4183;DHT22;2105;52.300;9.182;2023-03-30T11:10:20;15.40;1.00
4183;DHT22;2105;52.300;9.182;2023-03-30T11:12:52;15.50;1.00
4183;DHT22;2105;52.300;9.182;2023-03-30T11:15:23;15.80;23.00
4183;DHT22;2105;52.300;9.182;2023-03-30T11:17:56;15.90;99.90
4183;DHT22;2105;52.300;9.182;2023-03-30T11:20:25;15.90;1.00
4183;DHT22;2105;52.300;9.182;2023-03-30T11:23:01;15.90;99.90
4183;DHT22;2105;52.300;9.182;2023-03-30T11:25:34;15.90;1.00
4183;DHT22;2105;52.300;9.182;2023-03-30T11:28:12;16.10;99.90
4183;DHT22;2105;52.300;9.182;2023-03-30T11:30:42;16.10;99.90
4183;DHT22;2105;52.300;9.182;2023-03-30T11:33:16;16.00;1.00
4183;DHT22;2105;52.300;9.182;2023-03-30T11:35:45;15.60;99.90
4183;DHT22;2105;52.300;9.182;2023-03-30T11:38:14;15.70;1.00
4183;DHT22;2105;52.300;9.182;2023-03-30T11:40:45;16.40;99.90
4183;DHT22;2105;52.300;9.182;2023-03-30T11:43:14;16.70;94.10
4183;DHT22;2105;52.300;9.182;2023-03-30T11:45:53;16.70;1.00
4183;DHT22;2105;52.300;9.182;2023-03-30T11:48:43;16.40;1.00
4183;DHT22;2105;52.300;9.182;2023-03-30T11:51:37;16.10;1.00
4183;DHT22;2105;52.300;9.182;2023-03-30T11:54:27;15.70;1.00
4183;DHT22;2105;52.300;9.182;2023-03-30T11:56:59;15.50;1.00
4183;DHT22;2105;52.300;9.182;2023-03-30T11:59:41;15.20;1.00
4183;DHT22;2105;52.300;9.182;2023-03-30T12:02:18;15.00;1.00
4183;DHT22;2105;52.300;9.182;2023-03-30T12:04:50;15.30;1.00
4183;DHT22;2105;52.300;9.182;2023-03-30T12:07:29;15.40;99.90
4183;DHT22;2105;52.300;9.182;2023-03-30T12:10:00;15.50;99.90
4183;DHT22;2105;52.300;9.182;2023-03-30T12:12:30;15.90;99.90
4183;DHT22;2105;52.300;9.182;2023-03-30T12:15:12;16.00;99.90
4183;DHT22;2105;52.300;9.182;2023-03-30T12:17:45;16.00;1.00
4183;DHT22;2105;52.300;9.182;2023-03-30T12:20:26;16.10;99.90
4183;DHT22;2105;52.300;9.182;2023-03-30T12:22:58;16.00;99.90
4183;DHT22;2105;52.300;9.182;2023-03-30T12:25:31;15.80;99.90
4183;DHT22;2105;52.300;9.182;2023-03-30T12:28:10;15.60;99.90
4183;DHT22;2105;52.300;9.182;2023-03-30T12:30:45;15.40;99.90
4183;DHT22;2105;52.300;9.182;2023-03-30T12:33:17;15.40;99.90
4183;DHT22;2105;52.300;9.182;2023-03-30T12:35:55;15.30;99.90
4183;DHT22;2105;52.300;9.182;2023-03-30T12:38:24;15.20;1.00
4183;DHT22;2105;52.300;9.182;2023-03-30T12:40:55;15.20;1.00
4183;DHT22;2105;52.300;9.182;2023-03-30T12:43:31;15.10;1.00
4183;DHT22;2105;52.300;9.182;2023-03-30T12:46:07;14.90;1.00
4183;DHT22;2105;52.300;9.182;2023-03-30T12:48:45;14.80;1.00
4183;DHT22;2105;52.300;9.182;2023-03-30T12:51:29;14.90;1.00
4183;DHT22;2105;52.300;9.182;2023-03-30T12:54:30;15.00;99.90
4183;DHT22;2105;52.300;9.182;2023-03-30T12:57:11;15.20;1.00
4183;DHT22;2105;52.300;9.182;2023-03-30T12:59:55;15.80;1.00
4183;DHT22;2105;52.300;9.182;2023-03-30T13:05:39;16.60;99.90
4183;DHT22;2105;52.300;9.182;2023-03-30T13:08:09;16.70;99.90
4183;DHT22;2105;52.300;9.182;2023-03-30T13:10:44;16.90;99.90
4183;DHT22;2105;52.300;9.182;2023-03-30T13:13:21;17.30;99.90
4183;DHT22;2105;52.300;9.182;2023-03-30T13:15:49;17.40;93.80
4183;DHT22;2105;52.300;9.182;2023-03-30T13:18:32;16.90;99.90
4183;DHT22;2105;52.300;9.182;2023-03-30T13:21:04;16.40;99.90
4183;DHT22;2105;52.300;9.182;2023-03-30T13:23:32;16.00;99.90
4183;DHT22;2105;52.300;9.182;2023-03-30T13:26:04;15.70;1.00
4183;DHT22;2105;52.300;9.182;2023-03-30T13:28:47;15.50;1.00
4183;DHT22;2105;52.300;9.182;2023-03-30T13:31:38;15.90;1.00
4183;DHT22;2105;52.300;9.182;2023-03-30T13:34:16;16.40;1.00
4183;DHT22;2105;52.300;9.182;2023-03-30T13:36:52;16.60;1.00
4183;DHT22;2105;52.300;9.182;2023-03-30T13:39:23;16.60;99.90
4183;DHT22;2105;52.300;9.182;2023-03-30T13:42:01;16.70;99.90
4183;DHT22;2105;52.300;9.182;2023-03-30T13:44:39;16.90;99.90
4183;DHT22;2105;52.300;9.182;2023-03-30T13:47:25;16.90;99.90
4183;DHT22;2105;52.300;9.182;2023-03-30T13:49:57;17.10;99.90
4183;DHT22;2105;52.300;9.182;2023-03-30T13:52:29;16.80;99.90
4183;DHT22;2105;52.300;9.182;2023-03-30T13:54:56;16.30;99.90
4183;DHT22;2105;52.300;9.182;2023-03-30T13:57:30;16.00;1.00
4183;DHT22;2105;52.300;9.182;2023-03-30T14:00:03;16.10;99.90
4183;DHT22;2105;52.300;9.182;2023-03-30T14:02:31;16.40;1.00
4183;DHT22;2105;52.300;9.182;2023-03-30T14:05:12;16.70;1.00
4183;DHT22;2105;52.300;9.182;2023-03-30T14:07:40;16.80;99.90
4183;DHT22;2105;52.300;9.182;2023-03-30T14:10:13;16.60;99.90
4183;DHT22;2105;52.300;9.182;2023-03-30T14:12:40;16.30;99.90
4183;DHT22;2105;52.300;9.182;2023-03-30T14:15:20;16.10;99.90
4183;DHT22;2105;52.300;9.182;2023-03-30T14:17:49;15.90;99.90
4183;DHT22;2105;52.300;9.182;2023-03-30T14:20:43;15.80;99.90
4183;DHT22;2105;52.300;9.182;2023-03-30T14:23:15;15.80;99.90
4183;DHT22;2105;52.300;9.182;2023-03-30T14:25:42;15.80;99.90
4183;DHT22;2105;52.300;9.182;2023-03-30T14:28:13;15.70;99.90
4183;DHT22;2105;52.300;9.182;2023-03-30T14:30:48;16.00;99.90
4183;DHT22;2105;52.300;9.182;2023-03-30T14:33:15;16.40;99.90
4183;DHT22;2105;52.300;9.182;2023-03-30T14:35:45;16.50;93.80
4183;DHT22;2105;52.300;9.182;2023-03-30T14:38:19;16.30;75.90
4183;DHT22;2105;52.300;9.182;2023-03-30T14:40:46;16.10;39.20
4183;DHT22;2105;52.300;9.182;2023-03-30T14:43:15;15.80;73.30
4183;DHT22;2105;52.300;9.182;2023-03-30T14:45:43;15.60;76.20
4183;DHT22;2105;52.300;9.182;2023-03-30T14:48:22;15.50;99.90
4183;DHT22;2105;52.300;9.182;2023-03-30T14:50:50;15.40;99.90
4183;DHT22;2105;52.300;9.182;2023-03-30T14:53:21;15.10;1.00
4183;DHT22;2105;52.300;9.182;2023-03-30T14:55:49;14.80;1.00
4183;DHT22;2105;52.300;9.182;2023-03-30T14:58:16;14.90;1.00
4183;DHT22;2105;52.300;9.182;2023-03-30T15:00:43;14.90;17.50
4183;DHT22;2105;52.300;9.182;2023-03-30T15:03:11;15.10;1.00
4183;DHT22;2105;52.300;9.182;2023-03-30T15:05:38;15.20;1.00
4183;DHT22;2105;52.300;9.182;2023-03-30T15:08:15;15.30;1.00
4183;DHT22;2105;52.300;9.182;2023-03-30T15:10:45;15.30;1.00
4183;DHT22;2105;52.300;9.182;2023-03-30T15:13:22;15.20;99.90
4183;DHT22;2105;52.300;9.182;2023-03-30T15:15:51;15.10;1.00
4183;DHT22;2105;52.300;9.182;2023-03-30T15:18:22;14.90;1.00
4183;DHT22;2105;52.300;9.182;2023-03-30T15:20:51;14.80;1.00
4183;DHT22;2105;52.300;9.182;2023-03-30T15:23:19;14.70;1.00
4183;DHT22;2105;52.300;9.182;2023-03-30T15:25:46;14.70;1.00
4183;DHT22;2105;52.300;9.182;2023-03-30T15:28:15;14.70;1.00
4183;DHT22;2105;52.300;9.182;2023-03-30T15:30:47;14.60;1.00
4183;DHT22;2105;52.300;9.182;2023-03-30T15:33:22;14.50;1.00
4183;DHT22;2105;52.300;9.182;2023-03-30T15:35:51;14.60;99.90
4183;DHT22;2105;52.300;9.182;2023-03-30T15:38:28;14.60;97.60
4183;DHT22;2105;52.300;9.182;2023-03-30T15:40:54;14.50;99.90
4183;DHT22;2105;52.300;9.182;2023-03-30T15:43:23;14.40;99.90
4183;DHT22;2105;52.300;9.182;2023-03-30T15:45:52;14.30;99.90
4183;DHT22;2105;52.300;9.182;2023-03-30T15:48:22;14.40;99.90
4183;DHT22;2105;52.300;9.182;2023-03-30T15:50:54;14.50;99.90
4183;DHT22;2105;52.300;9.182;2023-03-30T15:53:34;14.60;1.00
4183;DHT22;2105;52.300;9.182;2023-03-30T15:56:02;14.80;1.00
4183;DHT22;2105;52.300;9.182;2023-03-30T15:58:29;14.90;1.00
4183;DHT22;2105;52.300;9.182;2023-03-30T16:00:56;14.80;1.00
4183;DHT22;2105;52.300;9.182;2023-03-30T16:03:37;14.30;56.90
4183;DHT22;2105;52.300;9.182;2023-03-30T16:06:05;14.00;99.90
4183;DHT22;2105;52.300;9.182;2023-03-30T16:08:33;13.90;18.40
4183;DHT22;2105;52.300;9.182;2023-03-30T16:11:04;13.80;1.00
4183;DHT22;2105;52.300;9.182;2023-03-30T16:13:31;13.80;99.90
4183;DHT22;2105;52.300;9.182;2023-03-30T16:15:57;13.70;99.90
4183;DHT22;2105;52.300;9.182;2023-03-30T16:18:24;13.60;99.90
4183;DHT22;2105;52.300;9.182;2023-03-30T16:20:50;13.60;1.00
4183;DHT22;2105;52.300;9.182;2023-03-30T16:23:17;13.60;1.00
4183;DHT22;2105;52.300;9.182;2023-03-30T16:25:45;13.50;1.00
4183;DHT22;2105;52.300;9.182;2023-03-30T16:28:14;13.50;99.90
4183;DHT22;2105;52.300;9.182;2023-03-30T16:30:43;13.40;99.90
4183;DHT22;2105;52.300;9.182;2023-03-30T16:33:10;13.40;99.90
4183;DHT22;2105;52.300;9.182;2023-03-30T16:35:37;13.40;99.90
4183;DHT22;2105;52.300;9.182;2023-03-30T16:38:04;13.40;99.90
4183;DHT22;2105;52.300;9.182;2023-03-30T16:40:33;13.30;1.00
4183;DHT22;2105;52.300;9.182;2023-03-30T16:43:02;13.20;1.00